createdAt,value
2019-04-01T00:00:04.174Z,967.54
2019-04-01T00:01:07.404Z,967.56
2019-04-01T00:02:04.158Z,967.45
2019-04-01T00:03:04.150Z,967.51
2019-04-01T00:04:04.146Z,967.47
2019-04-01T00:05:04.137Z,967.44
2019-04-01T00:06:04.129Z,967.48
2019-04-01T00:07:04.122Z,967.44
2019-04-01T00:08:04.114Z,967.48
2019-04-01T00:09:04.107Z,967.48
2019-04-01T00:10:04.099Z,967.52
2019-04-01T00:11:04.092Z,967.55
2019-04-01T00:12:04.084Z,967.45
2019-04-01T00:13:04.077Z,967.53
2019-04-01T00:14:04.069Z,967.52
2019-04-01T00:15:04.062Z,967.5
2019-04-01T00:16:04.055Z,967.47
2019-04-01T00:17:04.197Z,967.56
2019-04-01T00:18:04.040Z,967.51
2019-04-01T00:19:04.036Z,967.5
2019-04-01T00:20:04.026Z,967.52
2019-04-01T00:21:04.018Z,967.52
2019-04-01T00:22:04.012Z,967.46
2019-04-01T00:23:04.241Z,967.53
2019-04-01T00:24:03.996Z,967.49
2019-04-01T00:25:03.990Z,967.59
2019-04-01T00:26:03.980Z,967.54
2019-04-01T00:27:03.974Z,967.56
2019-04-01T00:28:03.967Z,967.51
2019-04-01T00:29:03.958Z,967.51
2019-04-01T00:30:03.951Z,967.51
2019-04-01T00:31:03.945Z,967.53
2019-04-01T00:32:04.006Z,967.47
2019-04-01T00:33:03.931Z,967.47
2019-04-01T00:34:03.927Z,967.43
2019-04-01T00:35:03.919Z,967.48
2019-04-01T00:36:03.909Z,967.46
2019-04-01T00:37:03.900Z,967.44
2019-04-01T00:38:03.892Z,967.5
2019-04-01T00:39:03.885Z,967.45
2019-04-01T00:40:03.876Z,967.41
2019-04-01T00:41:03.879Z,967.49
2019-04-01T00:42:03.864Z,967.42
2019-04-01T00:43:03.855Z,967.46
2019-04-01T00:44:03.847Z,967.45
2019-04-01T00:45:03.845Z,967.42
2019-04-01T00:46:03.833Z,967.36
2019-04-01T00:47:03.824Z,967.42
2019-04-01T00:48:03.817Z,967.43
2019-04-01T00:49:03.809Z,967.4
2019-04-01T00:50:03.802Z,967.44
2019-04-01T00:51:03.794Z,967.41
2019-04-01T00:52:03.790Z,967.37
2019-04-01T00:53:03.780Z,967.3
2019-04-01T00:54:03.773Z,967.38
2019-04-01T00:55:03.764Z,967.34
2019-04-01T00:56:03.757Z,967.4
2019-04-01T00:57:03.752Z,967.38
2019-04-01T00:58:03.741Z,967.29
2019-04-01T00:59:03.735Z,967.38
2019-04-01T01:00:03.727Z,967.32
2019-04-01T01:01:03.719Z,967.34
2019-04-01T01:02:03.711Z,967.35
2019-04-01T01:03:03.706Z,967.35
2019-04-01T01:04:03.697Z,967.36
2019-04-01T01:05:03.690Z,967.31
2019-04-01T01:06:03.681Z,967.34
2019-04-01T01:07:03.675Z,967.37
2019-04-01T01:08:03.667Z,967.32
2019-04-01T01:09:03.658Z,967.37
2019-04-01T01:10:03.651Z,967.35
2019-04-01T01:11:03.645Z,967.29
2019-04-01T01:12:03.640Z,967.37
2019-04-01T01:13:03.630Z,967.38
2019-04-01T01:14:03.621Z,967.37
2019-04-01T01:15:03.617Z,967.32
2019-04-01T01:16:03.608Z,967.29
2019-04-01T01:17:03.601Z,967.38
2019-04-01T01:18:03.592Z,967.36
2019-04-01T01:19:03.585Z,967.35
2019-04-01T01:20:03.577Z,967.33
2019-04-01T01:21:03.569Z,967.34
2019-04-01T01:22:03.563Z,967.29
2019-04-01T01:23:03.555Z,967.27
2019-04-01T01:24:03.547Z,967.33
2019-04-01T01:25:03.540Z,967.27
2019-04-01T01:26:03.532Z,967.21
2019-04-01T01:27:03.526Z,967.25
2019-04-01T01:28:03.516Z,967.26
2019-04-01T01:29:03.509Z,967.26
2019-04-01T01:30:03.502Z,967.24
2019-04-01T01:31:03.494Z,967.23
2019-04-01T01:32:03.486Z,967.24
2019-04-01T01:33:03.478Z,967.2
2019-04-01T01:34:03.471Z,967.23
2019-04-01T01:35:03.465Z,967.18
2019-04-01T01:36:03.456Z,967.2
2019-04-01T01:37:03.448Z,967.23
2019-04-01T01:38:03.439Z,967.17
2019-04-01T01:39:03.433Z,967.22
2019-04-01T01:40:03.426Z,967.2
2019-04-01T01:41:03.418Z,967.22
2019-04-01T01:42:03.410Z,967.16
2019-04-01T01:43:03.403Z,967.17
2019-04-01T01:44:03.396Z,967.16
2019-04-01T01:45:03.392Z,967.18
2019-04-01T01:46:03.381Z,967.17
2019-04-01T01:47:03.374Z,967.18
2019-04-01T01:48:03.367Z,967.14
2019-04-01T01:49:03.357Z,967.16
2019-04-01T01:50:03.350Z,967.16
2019-04-01T01:51:03.352Z,967.16
2019-04-01T01:52:03.336Z,967.14
2019-04-01T01:53:03.328Z,967.16
2019-04-01T01:54:03.320Z,967.15
2019-04-01T01:55:03.319Z,967.14
2019-04-01T01:56:03.305Z,967.13
2019-04-01T01:57:03.297Z,967.14
2019-04-01T01:58:03.290Z,967.14
2019-04-01T01:59:03.283Z,967.17
2019-04-01T02:00:03.275Z,967.14
2019-04-01T02:01:03.267Z,967.12
2019-04-01T02:02:03.267Z,967.06
2019-04-01T02:03:03.253Z,967.11
2019-04-01T02:04:03.245Z,967.11
2019-04-01T02:05:03.237Z,967.11
2019-04-01T02:06:04.431Z,967.11
2019-04-01T02:07:03.226Z,967.07
2019-04-01T02:08:03.214Z,967.11
2019-04-01T02:09:03.207Z,967.11
2019-04-01T02:10:03.202Z,967.11
2019-04-01T02:11:03.193Z,967.13
2019-04-01T02:12:03.184Z,967.11
2019-04-01T02:13:03.180Z,967.11
2019-04-01T02:14:03.172Z,967.05
2019-04-01T02:15:03.166Z,967.08
2019-04-01T02:16:03.155Z,967.11
2019-04-01T02:17:03.152Z,967.16
2019-04-01T02:18:03.155Z,967.16
2019-04-01T02:19:03.132Z,967.15
2019-04-01T02:20:03.125Z,967.18
2019-04-01T02:21:03.116Z,967.15
2019-04-01T02:22:03.109Z,967.11
2019-04-01T02:23:03.100Z,967.13
2019-04-01T02:24:03.095Z,967.17
2019-04-01T02:25:03.091Z,967.12
2019-04-01T02:26:03.078Z,967.15
2019-04-01T02:27:03.070Z,967.16
2019-04-01T02:28:03.064Z,967.15
2019-04-01T02:29:03.138Z,967.1
2019-04-01T02:30:03.053Z,967.14
2019-04-01T02:31:03.062Z,967.16
2019-04-01T02:32:03.035Z,967.17
2019-04-01T02:33:03.024Z,967.16
2019-04-01T02:34:03.018Z,967.14
2019-04-01T02:35:03.010Z,967.12
2019-04-01T02:36:03.010Z,967.13
2019-04-01T02:37:02.995Z,967.14
2019-04-01T02:38:02.986Z,967.09
2019-04-01T02:39:02.979Z,967.12
2019-04-01T02:40:02.974Z,967.15
2019-04-01T02:41:02.968Z,967.12
2019-04-01T02:42:02.958Z,967.16
2019-04-01T02:43:02.948Z,967.13
2019-04-01T02:44:02.940Z,967.12
2019-04-01T02:45:02.938Z,967.12
2019-04-01T02:46:02.927Z,967.16
2019-04-01T02:47:02.920Z,967.19
2019-04-01T02:48:02.914Z,967.15
2019-04-01T02:49:02.907Z,967.14
2019-04-01T02:50:02.897Z,967.19
2019-04-01T02:51:02.913Z,967.13
2019-04-01T02:52:02.884Z,967.13
2019-04-01T02:53:02.874Z,967.13
2019-04-01T02:54:02.872Z,967.16
2019-04-01T02:55:06.528Z,967.16
2019-04-01T02:56:02.859Z,967.16
2019-04-01T02:57:02.847Z,967.15
2019-04-01T02:58:02.858Z,967.17
2019-04-01T02:59:02.829Z,967.13
2019-04-01T03:00:02.820Z,967.17
2019-04-01T03:01:02.836Z,967.14
2019-04-01T03:02:02.819Z,967.1
2019-04-01T03:03:02.797Z,967.09
2019-04-01T03:04:02.795Z,967.14
2019-04-01T03:05:02.809Z,967.16
2019-04-01T03:06:02.777Z,967.1
2019-04-01T03:07:02.766Z,967.13
2019-04-01T03:08:02.759Z,967.14
2019-04-01T03:09:02.756Z,967.17
2019-04-01T03:10:02.744Z,967.11
2019-04-01T03:11:02.774Z,967.15
2019-04-01T03:12:02.732Z,967.13
2019-04-01T03:13:02.719Z,967.14
2019-04-01T03:14:02.716Z,967.14
2019-04-01T03:15:02.722Z,967.13
2019-04-01T03:16:02.704Z,967.15
2019-04-01T03:17:02.700Z,967.17
2019-04-01T03:18:02.686Z,967.12
2019-04-01T03:19:02.815Z,967.16
2019-04-01T03:20:02.666Z,967.18
2019-04-01T03:21:02.678Z,967.15
2019-04-01T03:22:02.650Z,967.13
2019-04-01T03:23:02.658Z,967.13
2019-04-01T03:24:02.635Z,967.15
2019-04-01T03:25:02.630Z,967.19
2019-04-01T03:26:02.619Z,967.15
2019-04-01T03:27:02.613Z,967.12
2019-04-01T03:28:02.614Z,967.13
2019-04-01T03:29:02.599Z,967.11
2019-04-01T03:30:02.591Z,967.13
2019-04-01T03:31:02.588Z,967.14
2019-04-01T03:32:02.574Z,967.08
2019-04-01T03:33:02.567Z,967.17
2019-04-01T03:34:02.651Z,967.19
2019-04-01T03:35:02.614Z,967.18
2019-04-01T03:36:02.544Z,967.14
2019-04-01T03:37:02.536Z,967.14
2019-04-01T03:38:02.532Z,967.21
2019-04-01T03:39:02.526Z,967.16
2019-04-01T03:40:02.512Z,967.18
2019-04-01T03:41:02.506Z,967.17
2019-04-01T03:42:02.505Z,967.21
2019-04-01T03:43:02.488Z,967.22
2019-04-01T03:44:02.482Z,967.18
2019-04-01T03:45:02.483Z,967.18
2019-04-01T03:46:02.466Z,967.21
2019-04-01T03:47:02.464Z,967.17
2019-04-01T03:48:02.560Z,967.18
2019-04-01T03:49:02.445Z,967.21
2019-04-01T03:50:02.435Z,967.21
2019-04-01T03:51:02.428Z,967.21
2019-04-01T03:52:02.420Z,967.16
2019-04-01T03:53:02.414Z,967.29
2019-04-01T03:54:02.405Z,967.22
2019-04-01T03:55:03.319Z,967.2
2019-04-01T03:56:02.391Z,967.22
2019-04-01T03:57:02.387Z,967.19
2019-04-01T03:58:02.377Z,967.26
2019-04-01T03:59:02.372Z,967.19
2019-04-01T04:00:02.368Z,967.17
2019-04-01T04:01:02.352Z,967.18
2019-04-01T04:02:02.344Z,967.18
2019-04-01T04:03:02.337Z,967.2
2019-04-01T04:04:02.328Z,967.18
2019-04-01T04:05:02.320Z,967.16
2019-04-01T04:06:02.313Z,967.16
2019-04-01T04:07:02.308Z,967.17
2019-04-01T04:08:02.296Z,967.18
2019-04-01T04:09:02.597Z,967.17
2019-04-01T04:10:02.283Z,967.21
2019-04-01T04:11:02.279Z,967.15
2019-04-01T04:12:02.305Z,967.15
2019-04-01T04:13:02.258Z,967.14
2019-04-01T04:14:02.250Z,967.16
2019-04-01T04:15:02.247Z,967.16
2019-04-01T04:16:02.241Z,967.14
2019-04-01T04:17:02.228Z,967.11
2019-04-01T04:18:02.222Z,967.16
2019-04-01T04:19:02.211Z,967.17
2019-04-01T04:20:02.205Z,967.15
2019-04-01T04:21:02.205Z,967.15
2019-04-01T04:22:02.190Z,967.16
2019-04-01T04:23:02.181Z,967.16
2019-04-01T04:24:02.174Z,967.2
2019-04-01T04:25:02.171Z,967.17
2019-04-01T04:26:02.159Z,967.21
2019-04-01T04:27:02.151Z,967.21
2019-04-01T04:28:02.143Z,967.24
2019-04-01T04:29:02.229Z,967.22
2019-04-01T04:30:02.136Z,967.21
2019-04-01T04:31:02.168Z,967.21
2019-04-01T04:32:02.114Z,967.26
2019-04-01T04:33:02.109Z,967.22
2019-04-01T04:34:02.097Z,967.23
2019-04-01T04:35:02.091Z,967.23
2019-04-01T04:36:02.081Z,967.24
2019-04-01T04:37:02.077Z,967.26
2019-04-01T04:38:02.065Z,967.26
2019-04-01T04:39:02.059Z,967.23
2019-04-01T04:40:02.050Z,967.27
2019-04-01T04:41:02.043Z,967.27
2019-04-01T04:42:02.040Z,967.34
2019-04-01T04:43:02.030Z,967.31
2019-04-01T04:44:02.019Z,967.31
2019-04-01T04:45:02.010Z,967.3
2019-04-01T04:46:02.003Z,967.32
2019-04-01T04:47:01.998Z,967.27
2019-04-01T04:48:02.003Z,967.26
2019-04-01T04:49:01.978Z,967.26
2019-04-01T04:50:01.971Z,967.28
2019-04-01T04:51:01.963Z,967.26
2019-04-01T04:52:04.544Z,967.29
2019-04-01T04:53:01.948Z,967.25
2019-04-01T04:54:01.941Z,967.24
2019-04-01T04:55:01.952Z,967.23
2019-04-01T04:56:01.925Z,967.25
2019-04-01T04:57:01.917Z,967.27
2019-04-01T04:58:01.908Z,967.29
2019-04-01T04:59:01.900Z,967.23
2019-04-01T05:00:01.895Z,967.24
2019-04-01T05:01:01.884Z,967.26
2019-04-01T05:02:01.877Z,967.21
2019-04-01T05:03:01.868Z,967.29
2019-04-01T05:04:01.863Z,967.28
2019-04-01T05:05:01.856Z,967.29
2019-04-01T05:06:01.846Z,967.32
2019-04-01T05:07:01.859Z,967.28
2019-04-01T05:08:01.830Z,967.25
2019-04-01T05:09:01.821Z,967.28
2019-04-01T05:10:01.813Z,967.3
2019-04-01T05:11:01.805Z,967.31
2019-04-01T05:12:01.798Z,967.34
2019-04-01T05:13:01.790Z,967.3
2019-04-01T05:14:01.781Z,967.29
2019-04-01T05:15:01.777Z,967.32
2019-04-01T05:16:01.766Z,967.27
2019-04-01T05:17:01.758Z,967.25
2019-04-01T05:18:01.750Z,967.31
2019-04-01T05:19:01.742Z,967.32
2019-04-01T05:20:01.735Z,967.29
2019-04-01T05:21:01.726Z,967.27
2019-04-01T05:22:01.718Z,967.3
2019-04-01T05:23:01.710Z,967.27
2019-04-01T05:24:01.703Z,967.26
2019-04-01T05:25:01.695Z,967.28
2019-04-01T05:26:01.686Z,967.29
2019-04-01T05:27:01.679Z,967.33
2019-04-01T05:28:01.671Z,967.3
2019-04-01T05:29:01.662Z,967.32
2019-04-01T05:30:01.654Z,967.36
2019-04-01T05:31:01.649Z,967.35
2019-04-01T05:32:01.644Z,967.35
2019-04-01T05:33:01.638Z,967.3
2019-04-01T05:34:01.628Z,967.35
2019-04-01T05:35:01.616Z,967.38
2019-04-01T05:36:01.608Z,967.43
2019-04-01T05:37:01.598Z,967.42
2019-04-01T05:38:01.591Z,967.41
2019-04-01T05:39:01.583Z,967.42
2019-04-01T05:40:01.576Z,967.43
2019-04-01T05:41:01.567Z,967.42
2019-04-01T05:42:01.559Z,967.41
2019-04-01T05:43:01.551Z,967.46
2019-04-01T05:44:02.329Z,967.46
2019-04-01T05:45:01.536Z,967.51
2019-04-01T05:46:01.528Z,967.52
2019-04-01T05:47:01.518Z,967.54
2019-04-01T05:48:01.511Z,967.54
2019-04-01T05:49:01.504Z,967.57
2019-04-01T05:50:01.500Z,967.56
2019-04-01T05:51:01.487Z,967.55
2019-04-01T05:52:01.479Z,967.59
2019-04-01T05:53:01.472Z,967.63
2019-04-01T05:54:01.463Z,967.61
2019-04-01T05:55:01.455Z,967.67
2019-04-01T05:56:01.448Z,967.67
2019-04-01T05:57:01.440Z,967.68
2019-04-01T05:58:01.431Z,967.68
2019-04-01T05:59:01.425Z,967.72
2019-04-01T06:00:01.415Z,967.7
2019-04-01T06:01:01.411Z,967.73
2019-04-01T06:02:01.400Z,967.74
2019-04-01T06:03:01.394Z,967.77
2019-04-01T06:04:01.385Z,967.8
2019-04-01T06:05:01.377Z,967.78
2019-04-01T06:06:01.370Z,967.77
2019-04-01T06:07:01.363Z,967.78
2019-04-01T06:08:01.355Z,967.82
2019-04-01T06:09:01.346Z,967.8
2019-04-01T06:10:01.338Z,967.81
2019-04-01T06:11:01.330Z,967.86
2019-04-01T06:12:01.323Z,967.85
2019-04-01T06:13:01.315Z,967.79
2019-04-01T06:14:01.307Z,967.85
2019-04-01T06:15:01.305Z,967.81
2019-04-01T06:16:01.294Z,967.81
2019-04-01T06:17:01.284Z,967.8
2019-04-01T06:18:01.276Z,967.82
2019-04-01T06:19:01.268Z,967.85
2019-04-01T06:20:01.260Z,967.82
2019-04-01T06:21:01.252Z,967.82
2019-04-01T06:22:01.243Z,967.84
2019-04-01T06:23:01.236Z,967.81
2019-04-01T06:24:01.228Z,967.89
2019-04-01T06:25:01.221Z,967.87
2019-04-01T06:26:01.248Z,967.86
2019-04-01T06:27:01.205Z,967.82
2019-04-01T06:28:01.199Z,967.87
2019-04-01T06:29:01.192Z,967.84
2019-04-01T06:30:01.183Z,967.87
2019-04-01T06:31:01.174Z,967.86
2019-04-01T06:32:01.169Z,967.91
2019-04-01T06:33:01.163Z,967.91
2019-04-01T06:34:01.151Z,967.87
2019-04-01T06:35:01.143Z,967.87
2019-04-01T06:36:01.137Z,967.9
2019-04-01T06:37:01.127Z,967.88
2019-04-01T06:38:01.119Z,967.9
2019-04-01T06:39:01.112Z,967.92
2019-04-01T06:40:01.112Z,967.86
2019-04-01T06:41:01.099Z,967.83
2019-04-01T06:42:01.090Z,967.86
2019-04-01T06:43:01.081Z,967.85
2019-04-01T06:44:01.073Z,967.84
2019-04-01T06:45:01.065Z,967.82
2019-04-01T06:46:01.069Z,967.84
2019-04-01T06:47:01.049Z,967.82
2019-04-01T06:48:01.044Z,967.81
2019-04-01T06:49:01.034Z,967.81
2019-04-01T06:50:01.097Z,967.86
2019-04-01T06:51:01.020Z,967.84
2019-04-01T06:52:01.012Z,967.86
2019-04-01T06:53:01.004Z,967.82
2019-04-01T06:54:00.999Z,967.83
2019-04-01T06:55:00.989Z,967.82
2019-04-01T06:56:00.980Z,967.84
2019-04-01T06:57:00.972Z,967.8
2019-04-01T06:58:00.965Z,967.84
2019-04-01T06:59:00.959Z,967.78
2019-04-01T07:00:00.950Z,967.75
2019-04-01T07:01:00.940Z,967.79
2019-04-01T07:02:00.939Z,967.79
2019-04-01T07:03:00.927Z,967.78
2019-04-01T07:04:00.919Z,967.79
2019-04-01T07:05:00.913Z,967.79
2019-04-01T07:06:00.904Z,967.73
2019-04-01T07:07:00.896Z,967.72
2019-04-01T07:08:00.892Z,967.73
2019-04-01T07:09:00.880Z,967.73
2019-04-01T07:10:00.873Z,967.77
2019-04-01T07:11:00.865Z,967.76
2019-04-01T07:12:00.858Z,967.8
2019-04-01T07:13:00.850Z,967.76
2019-04-01T07:14:00.843Z,967.71
2019-04-01T07:15:00.833Z,967.72
2019-04-01T07:16:14.595Z,967.75
2019-04-01T07:17:00.819Z,967.79
2019-04-01T07:18:00.813Z,967.81
2019-04-01T07:19:00.804Z,967.84
2019-04-01T07:20:00.797Z,967.85
2019-04-01T07:21:00.788Z,967.82
2019-04-01T07:22:00.785Z,967.84
2019-04-01T07:23:00.773Z,967.82
2019-04-01T07:24:00.766Z,967.83
2019-04-01T07:25:00.759Z,967.84
2019-04-01T07:26:00.751Z,967.84
2019-04-01T07:27:00.742Z,967.83
2019-04-01T07:28:00.736Z,967.91
2019-04-01T07:29:00.733Z,967.85
2019-04-01T07:30:00.720Z,967.89
2019-04-01T07:31:00.715Z,967.9
2019-04-01T07:32:00.706Z,967.86
2019-04-01T07:33:00.699Z,967.86
2019-04-01T07:34:00.689Z,967.87
2019-04-01T07:35:00.682Z,967.9
2019-04-01T07:36:00.675Z,967.9
2019-04-01T07:37:00.668Z,967.92
2019-04-01T07:38:00.659Z,967.94
2019-04-01T07:39:00.652Z,967.95
2019-04-01T07:40:00.645Z,967.93
2019-04-01T07:41:00.637Z,967.94
2019-04-01T07:42:00.629Z,967.96
2019-04-01T07:43:00.622Z,967.93
2019-04-01T07:44:00.614Z,967.97
2019-04-01T07:45:00.605Z,967.96
2019-04-01T07:46:00.600Z,967.96
2019-04-01T07:47:00.594Z,967.95
2019-04-01T07:48:00.584Z,967.96
2019-04-01T07:49:00.576Z,967.96
2019-04-01T07:50:00.569Z,967.96
2019-04-01T07:51:00.634Z,967.93
2019-04-01T07:52:00.554Z,967.94
2019-04-01T07:53:00.549Z,967.93
2019-04-01T07:54:00.539Z,967.94
2019-04-01T07:55:00.586Z,967.95
2019-04-01T07:56:02.451Z,967.94
2019-04-01T07:57:00.515Z,967.97
2019-04-01T07:58:00.507Z,967.98
2019-04-01T07:59:00.501Z,967.94
2019-04-01T08:00:00.498Z,967.97
2019-04-01T08:01:00.487Z,967.95
2019-04-01T08:02:00.478Z,967.96
2019-04-01T08:03:00.471Z,967.96
2019-04-01T08:04:00.465Z,967.97
2019-04-01T08:05:00.607Z,968.01
2019-04-01T08:06:00.449Z,968.03
2019-04-01T08:07:00.441Z,968.03
2019-04-01T08:08:00.436Z,968.07
2019-04-01T08:09:00.425Z,968.04
2019-04-01T08:10:00.497Z,968.04
2019-04-01T08:11:00.412Z,968.02
2019-04-01T08:12:00.405Z,968.01
2019-04-01T08:13:00.397Z,968.06
2019-04-01T08:14:00.389Z,968.04
2019-04-01T08:15:00.426Z,968.05
2019-04-01T08:16:00.376Z,968.05
2019-04-01T08:17:00.374Z,967.99
2019-04-01T08:18:00.362Z,968.01
2019-04-01T08:19:00.353Z,967.98
2019-04-01T08:20:00.405Z,967.99
2019-04-01T08:21:00.338Z,968
2019-04-01T08:22:00.331Z,967.96
2019-04-01T08:23:00.323Z,967.99
2019-04-01T08:24:00.315Z,967.98
2019-04-01T08:25:00.370Z,967.96
2019-04-01T08:26:00.301Z,967.97
2019-04-01T08:27:00.294Z,967.94
2019-04-01T08:28:00.288Z,967.96
2019-04-01T08:29:00.278Z,967.96
2019-04-01T08:30:00.428Z,967.98
2019-04-01T08:31:00.265Z,967.97
2019-04-01T08:32:00.257Z,968.03
2019-04-01T08:33:00.250Z,968.01
2019-04-01T08:34:00.261Z,968.03
2019-04-01T08:35:00.477Z,968.03
2019-04-01T08:36:00.228Z,968.08
2019-04-01T08:37:00.221Z,968.04
2019-04-01T08:38:00.272Z,968.05
2019-04-01T08:39:00.206Z,968.05
2019-04-01T08:40:00.390Z,968.04
2019-04-01T08:41:00.191Z,968.05
2019-04-01T08:42:00.190Z,968.1
2019-04-01T08:43:00.175Z,968.07
2019-04-01T08:44:03.057Z,968.06
2019-04-01T08:45:00.337Z,968.01
2019-04-01T08:46:00.153Z,967.99
2019-04-01T08:47:00.146Z,968
2019-04-01T08:48:00.140Z,968
2019-04-01T08:49:00.133Z,967.99
2019-04-01T08:50:00.392Z,967.96
2019-04-01T08:51:00.119Z,967.98
2019-04-01T08:52:00.112Z,967.96
2019-04-01T08:53:00.103Z,967.94
2019-04-01T08:54:00.097Z,967.95
2019-04-01T08:55:00.126Z,967.95
2019-04-01T08:56:00.726Z,967.98
2019-04-01T08:57:00.076Z,967.94
2019-04-01T08:58:00.068Z,967.96
2019-04-01T08:59:00.064Z,968
2019-04-01T09:00:00.169Z,967.97
2019-04-01T09:01:00.047Z,967.96
2019-04-01T09:02:00.039Z,967.97
2019-04-01T09:03:00.036Z,967.95
2019-04-01T09:04:00.024Z,967.97
2019-04-01T09:05:00.018Z,967.98
2019-04-01T09:06:00.175Z,968
2019-04-01T09:07:00.003Z,967.95
2019-04-01T09:07:59.996Z,967.98
2019-04-01T09:08:59.990Z,967.99
2019-04-01T09:09:59.983Z,967.98
2019-04-01T09:10:59.975Z,968
2019-04-01T09:11:59.968Z,967.95
2019-04-01T09:12:59.961Z,967.96
2019-04-01T09:13:59.955Z,967.98
2019-04-01T09:14:59.952Z,967.96
2019-04-01T09:15:59.940Z,967.96
2019-04-01T09:16:59.933Z,967.96
2019-04-01T09:17:59.926Z,967.95
2019-04-01T09:18:59.919Z,967.98
2019-04-01T09:19:59.914Z,967.97
2019-04-01T09:20:59.906Z,967.96
2019-04-01T09:21:59.897Z,967.97
2019-04-01T09:23:01.142Z,968
2019-04-01T09:23:59.884Z,967.94
2019-04-01T09:24:59.879Z,967.92
2019-04-01T09:25:59.870Z,967.96
2019-04-01T09:26:59.864Z,967.93
2019-04-01T09:27:59.855Z,967.94
2019-04-01T09:28:59.849Z,967.95
2019-04-01T09:29:59.840Z,967.94
2019-04-01T09:30:59.834Z,967.91
2019-04-01T09:31:59.832Z,967.91
2019-04-01T09:32:59.822Z,967.94
2019-04-01T09:33:59.812Z,967.94
2019-04-01T09:34:59.806Z,967.88
2019-04-01T09:35:59.800Z,967.87
2019-04-01T09:36:59.791Z,967.86
2019-04-01T09:37:59.784Z,967.85
2019-04-01T09:38:59.782Z,967.8
2019-04-01T09:39:59.770Z,967.86
2019-04-01T09:40:59.763Z,967.83
2019-04-01T09:41:59.757Z,967.84
2019-04-01T09:42:59.749Z,967.87
2019-04-01T09:43:59.741Z,967.9
2019-04-01T09:44:59.736Z,967.81
2019-04-01T09:46:00.291Z,967.83
2019-04-01T09:46:59.724Z,967.85
2019-04-01T09:47:59.713Z,967.8
2019-04-01T09:48:59.710Z,967.79
2019-04-01T09:49:59.701Z,967.79
2019-04-01T09:50:59.693Z,967.75
2019-04-01T09:51:59.685Z,967.77
2019-04-01T09:52:59.678Z,967.71
2019-04-01T09:53:59.672Z,967.76
2019-04-01T09:54:59.690Z,967.77
2019-04-01T09:55:59.659Z,967.73
2019-04-01T09:56:59.653Z,967.71
2019-04-01T09:57:59.650Z,967.66
2019-04-01T09:58:59.637Z,967.7
2019-04-01T09:59:59.631Z,967.64
2019-04-01T10:00:59.623Z,967.64
2019-04-01T10:01:59.617Z,967.63
2019-04-01T10:02:59.609Z,967.6
2019-04-01T10:03:59.602Z,967.55
2019-04-01T10:04:59.595Z,967.61
2019-04-01T10:05:59.588Z,967.56
2019-04-01T10:06:59.581Z,967.58
2019-04-01T10:07:59.575Z,967.57
2019-04-01T10:08:59.569Z,967.53
2019-04-01T10:09:59.561Z,967.5
2019-04-01T10:10:59.555Z,967.53
2019-04-01T10:11:59.547Z,967.53
2019-04-01T10:12:59.540Z,967.51
2019-04-01T10:13:59.532Z,967.5
2019-04-01T10:14:59.528Z,967.5
2019-04-01T10:15:59.518Z,967.52
2019-04-01T10:16:59.511Z,967.54
2019-04-01T10:17:59.504Z,967.52
2019-04-01T10:18:59.498Z,967.51
2019-04-01T10:20:00.932Z,967.49
2019-04-01T10:20:59.487Z,967.45
2019-04-01T10:21:59.478Z,967.5
2019-04-01T10:22:59.470Z,967.52
2019-04-01T10:23:59.465Z,967.48
2019-04-01T10:24:59.456Z,967.45
2019-04-01T10:25:59.451Z,967.46
2019-04-01T10:26:59.442Z,967.45
2019-04-01T10:27:59.436Z,967.49
2019-04-01T10:28:59.429Z,967.45
2019-04-01T10:29:59.424Z,967.41
2019-04-01T10:30:59.417Z,967.4
2019-04-01T10:31:59.407Z,967.34
2019-04-01T10:33:02.085Z,967.32
2019-04-01T10:33:59.394Z,967.38
2019-04-01T10:34:59.388Z,967.41
2019-04-01T10:35:59.381Z,967.36
2019-04-01T10:36:59.373Z,967.36
2019-04-01T10:37:59.367Z,967.44
2019-04-01T10:38:59.359Z,967.35
2019-04-01T10:40:00.271Z,967.34
2019-04-01T10:40:59.347Z,967.35
2019-04-01T10:41:59.339Z,967.32
2019-04-01T10:42:59.335Z,967.31
2019-04-01T10:43:59.324Z,967.34
2019-04-01T10:44:59.318Z,967.38
2019-04-01T10:45:59.312Z,967.33
2019-04-01T10:46:59.346Z,967.39
2019-04-01T10:47:59.362Z,967.31
2019-04-01T10:48:59.294Z,967.36
2019-04-01T10:49:59.333Z,967.3
2019-04-01T10:50:59.314Z,967.27
2019-04-01T10:51:59.315Z,967.27
2019-04-01T10:52:59.314Z,967.25
2019-04-01T10:53:59.272Z,967.29
2019-04-01T10:54:59.276Z,967.28
2019-04-01T10:55:59.252Z,967.18
2019-04-01T10:56:59.261Z,967.17
2019-04-01T10:57:59.242Z,967.2
2019-04-01T10:58:59.272Z,967.21
2019-04-01T10:59:59.271Z,967.16
2019-04-01T11:00:59.263Z,967.16
2019-04-01T11:01:59.215Z,967.15
2019-04-01T11:02:59.279Z,967.11
2019-04-01T11:03:59.242Z,967.05
2019-04-01T11:04:59.188Z,967.07
2019-04-01T11:05:59.268Z,967.14
2019-04-01T11:06:59.217Z,967.09
2019-04-01T11:07:59.248Z,967.13
2019-04-01T11:08:59.187Z,967.08
2019-04-01T11:09:59.144Z,967.05
2019-04-01T11:10:59.137Z,967.07
2019-04-01T11:11:59.130Z,967.04
2019-04-01T11:12:59.123Z,967.01
2019-04-01T11:13:59.120Z,966.97
2019-04-01T11:14:59.110Z,966.94
2019-04-01T11:15:59.101Z,966.9
2019-04-01T11:16:59.096Z,966.95
2019-04-01T11:17:59.088Z,966.92
2019-04-01T11:18:59.084Z,966.94
2019-04-01T11:19:59.073Z,966.95
2019-04-01T11:20:59.068Z,966.93
2019-04-01T11:21:59.061Z,966.96
2019-04-01T11:23:02.324Z,966.9
2019-04-01T11:23:59.046Z,966.86
2019-04-01T11:24:59.041Z,966.88
2019-04-01T11:25:59.034Z,966.91
2019-04-01T11:26:59.025Z,966.91
2019-04-01T11:27:59.019Z,966.92
2019-04-01T11:28:59.012Z,966.83
2019-04-01T11:29:59.004Z,966.89
2019-04-01T11:30:59.020Z,966.86
2019-04-01T11:31:59.094Z,966.87
2019-04-01T11:32:59.003Z,966.8
2019-04-01T11:33:59.017Z,966.88
2019-04-01T11:34:59.018Z,966.9
2019-04-01T11:35:58.963Z,966.89
2019-04-01T11:36:58.990Z,966.81
2019-04-01T11:37:58.981Z,966.84
2019-04-01T11:38:58.985Z,966.81
2019-04-01T11:39:58.981Z,966.75
2019-04-01T11:40:58.932Z,966.8
2019-04-01T11:42:01.362Z,966.79
2019-04-01T11:42:58.961Z,966.76
2019-04-01T11:43:58.934Z,966.71
2019-04-01T11:44:58.909Z,966.75
2019-04-01T11:45:58.950Z,966.67
2019-04-01T11:46:58.899Z,966.74
2019-04-01T11:47:58.929Z,966.75
2019-04-01T11:48:58.905Z,966.67
2019-04-01T11:49:58.889Z,966.69
2019-04-01T11:50:58.885Z,966.68
2019-04-01T11:51:58.884Z,966.68
2019-04-01T11:52:58.894Z,966.68
2019-04-01T11:53:58.840Z,966.66
2019-04-01T11:54:58.835Z,966.64
2019-04-01T11:55:58.826Z,966.64
2019-04-01T11:56:58.820Z,966.66
2019-04-01T11:57:58.813Z,966.63
2019-04-01T11:58:58.810Z,966.56
2019-04-01T11:59:58.800Z,966.58
2019-04-01T12:00:58.793Z,966.6
2019-04-01T12:01:58.787Z,966.56
2019-04-01T12:02:58.779Z,966.59
2019-04-01T12:03:58.773Z,966.56
2019-04-01T12:04:58.769Z,966.55
2019-04-01T12:05:58.759Z,966.54
2019-04-01T12:07:01.818Z,966.51
2019-04-01T12:07:58.745Z,966.54
2019-04-01T12:08:58.998Z,966.52
2019-04-01T12:09:58.743Z,966.5
2019-04-01T12:10:58.724Z,966.48
2019-04-01T12:11:58.719Z,966.46
2019-04-01T12:12:59.871Z,966.44
2019-04-01T12:13:58.709Z,966.41
2019-04-01T12:14:58.700Z,966.42
2019-04-01T12:15:58.692Z,966.41
2019-04-01T12:16:58.685Z,966.36
2019-04-01T12:17:58.678Z,966.28
2019-04-01T12:18:58.673Z,966.36
2019-04-01T12:19:58.665Z,966.29
2019-04-01T12:20:58.658Z,966.31
2019-04-01T12:21:58.652Z,966.25
2019-04-01T12:22:58.647Z,966.26
2019-04-01T12:23:58.639Z,966.24
2019-04-01T12:24:58.632Z,966.22
2019-04-01T12:25:58.625Z,966.18
2019-04-01T12:26:58.620Z,966.24
2019-04-01T12:27:58.613Z,966.24
2019-04-01T12:28:58.606Z,966.18
2019-04-01T12:29:58.599Z,966.24